CSN3856 ZBAD-ZGGG
Flight info
| Callsign | CSN3856 |
|---|---|
| Flight time | N/A |
| Altitude | 40100 |
| Route | PEGSO6K PEGSO B215 EKETA B208 SQ W45 IKAVO IKAVO9 |
| Aircraft | A359/H-SDE2E3GHIJ3J4J5LM1ORWXY/LB1D1 |
Departure
| Time | 2026-04-18 04:02 |
|---|---|
| Airport | Beijing Daxing International Airport (ZBAD) |
Arrival
| Time | N/A |
|---|---|
| Airport | Guangzhou Baiyun International Airport (ZGGG) |
| Time | Latitude | Longitude | Altitude | Speed | Heading |
|---|---|---|---|---|---|
| 2026-04-18 03:11 | 39.50605 | 116.41294 | 91 ft | 0 kts | 252° |
| 2026-04-18 03:47 | 39.50612 | 116.41317 | 95 ft | 4 kts | 244° |
| 2026-04-18 03:47 | 39.50626 | 116.41346 | 92 ft | 4 kts | 223° |
| 2026-04-18 03:48 | 39.50647 | 116.41362 | 93 ft | 4 kts | 181° |
| 2026-04-18 03:48 | 39.50660 | 116.41360 | 92 ft | 0 kts | 157° |
| 2026-04-18 03:49 | 39.50661 | 116.41360 | 92 ft | 0 kts | 157° |
| 2026-04-18 03:53 | 39.50634 | 116.41375 | 93 ft | 10 kts | 157° |
| 2026-04-18 03:54 | 39.50559 | 116.41416 | 96 ft | 13 kts | 157° |
| 2026-04-18 03:54 | 39.50500 | 116.41444 | 92 ft | 14 kts | 165° |
| 2026-04-18 03:54 | 39.50378 | 116.41450 | 93 ft | 12 kts | 171° |
| 2026-04-18 03:54 | 39.50320 | 116.41464 | 93 ft | 14 kts | 170° |
| 2026-04-18 03:55 | 39.50220 | 116.41479 | 92 ft | 16 kts | 174° |
| 2026-04-18 03:55 | 39.50134 | 116.41435 | 94 ft | 14 kts | 253° |
| 2026-04-18 03:55 | 39.50121 | 116.41304 | 93 ft | 16 kts | 263° |
| 2026-04-18 03:55 | 39.50101 | 116.41104 | 94 ft | 18 kts | 262° |
| 2026-04-18 03:56 | 39.50085 | 116.40934 | 96 ft | 20 kts | 263° |
| 2026-04-18 03:56 | 39.50074 | 116.40813 | 94 ft | 21 kts | 263° |
| 2026-04-18 03:56 | 39.50055 | 116.40618 | 92 ft | 23 kts | 262° |
| 2026-04-18 03:56 | 39.50035 | 116.40412 | 94 ft | 24 kts | 263° |
| 2026-04-18 03:57 | 39.49946 | 116.40129 | 95 ft | 14 kts | 174° |
| 2026-04-18 03:57 | 39.49839 | 116.40148 | 94 ft | 17 kts | 173° |
| 2026-04-18 03:57 | 39.49676 | 116.40174 | 95 ft | 19 kts | 173° |
| 2026-04-18 03:58 | 39.49584 | 116.40188 | 95 ft | 20 kts | 175° |
| 2026-04-18 03:58 | 39.49439 | 116.40209 | 96 ft | 22 kts | 173° |
| 2026-04-18 03:58 | 39.49283 | 116.40235 | 97 ft | 23 kts | 173° |
| 2026-04-18 03:58 | 39.49118 | 116.40257 | 96 ft | 25 kts | 174° |
| 2026-04-18 03:59 | 39.48944 | 116.40282 | 98 ft | 26 kts | 173° |
| 2026-04-18 03:59 | 39.48763 | 116.40313 | 95 ft | 27 kts | 172° |
| 2026-04-18 03:59 | 39.48573 | 116.40346 | 97 ft | 28 kts | 173° |
| 2026-04-18 03:59 | 39.48459 | 116.40364 | 95 ft | 10 kts | 175° |
| 2026-04-18 04:00 | 39.48420 | 116.40317 | 98 ft | 7 kts | 251° |
| 2026-04-18 04:00 | 39.48411 | 116.40264 | 101 ft | 5 kts | 259° |
| 2026-04-18 04:00 | 39.48408 | 116.40237 | 101 ft | 1 kts | 262° |
| 2026-04-18 04:00 | 39.48403 | 116.40192 | 101 ft | 12 kts | 262° |
| 2026-04-18 04:01 | 39.48426 | 116.40138 | 103 ft | 9 kts | 341° |
| 2026-04-18 04:01 | 39.48493 | 116.40136 | 103 ft | 10 kts | 358° |
| 2026-04-18 04:01 | 39.48550 | 116.40128 | 106 ft | 0 kts | 353° |
| 2026-04-18 04:02 | 39.48797 | 116.40088 | 105 ft | 73 kts | 353° |
| 2026-04-18 04:02 | 39.49529 | 116.39975 | 102 ft | 136 kts | 353° |
| 2026-04-18 04:02 | 39.50637 | 116.39809 | 307 ft | 170 kts | 355° |
| 2026-04-18 04:02 | 39.51760 | 116.39642 | 1105 ft | 164 kts | 353° |
| 2026-04-18 04:03 | 39.52898 | 116.39441 | 1830 ft | 167 kts | 353° |
| 2026-04-18 04:03 | 39.54068 | 116.39229 | 2491 ft | 172 kts | 351° |
| 2026-04-18 04:03 | 39.55272 | 116.39015 | 3103 ft | 179 kts | 349° |
| 2026-04-18 04:03 | 39.56569 | 116.38792 | 3432 ft | 202 kts | 348° |
| 2026-04-18 04:04 | 39.58030 | 116.38549 | 3626 ft | 222 kts | 349° |
| 2026-04-18 04:04 | 39.59635 | 116.38290 | 3853 ft | 241 kts | 349° |
| 2026-04-18 04:04 | 39.61364 | 116.38014 | 4074 ft | 261 kts | 349° |
| 2026-04-18 04:04 | 39.63235 | 116.37716 | 4306 ft | 280 kts | 349° |
| 2026-04-18 04:05 | 39.65186 | 116.37350 | 4787 ft | 286 kts | 343° |
| 2026-04-18 04:05 | 39.66900 | 116.36224 | 5259 ft | 278 kts | 311° |
| 2026-04-18 04:05 | 39.67857 | 116.34145 | 5851 ft | 265 kts | 278° |
| 2026-04-18 04:05 | 39.67957 | 116.31795 | 6466 ft | 260 kts | 263° |
| 2026-04-18 04:06 | 39.67812 | 116.29445 | 7021 ft | 262 kts | 261° |
| 2026-04-18 04:06 | 39.67643 | 116.27074 | 7596 ft | 265 kts | 261° |
| 2026-04-18 04:06 | 39.67480 | 116.24682 | 8186 ft | 267 kts | 261° |
| 2026-04-18 04:06 | 39.67325 | 116.22306 | 8704 ft | 270 kts | 261° |
| 2026-04-18 04:07 | 39.67169 | 116.19871 | 8956 ft | 271 kts | 261° |
| 2026-04-18 04:07 | 39.67016 | 116.17422 | 8997 ft | 272 kts | 261° |
| 2026-04-18 04:07 | 39.66863 | 116.14968 | 9171 ft | 274 kts | 261° |
| 2026-04-18 04:07 | 39.66710 | 116.12489 | 9750 ft | 276 kts | 261° |
| 2026-04-18 04:08 | 39.66557 | 116.09993 | 10279 ft | 281 kts | 261° |
| 2026-04-18 04:08 | 39.66391 | 116.07393 | 10513 ft | 297 kts | 261° |
| 2026-04-18 04:08 | 39.66216 | 116.04666 | 10728 ft | 311 kts | 262° |
| 2026-04-18 04:08 | 39.66033 | 116.01809 | 10995 ft | 323 kts | 262° |
| 2026-04-18 04:09 | 39.65551 | 115.98992 | 11359 ft | 325 kts | 244° |
| 2026-04-18 04:09 | 39.64195 | 115.96672 | 11793 ft | 326 kts | 219° |
| 2026-04-18 04:09 | 39.62163 | 115.95363 | 12232 ft | 333 kts | 195° |
| 2026-04-18 04:09 | 39.59830 | 115.95282 | 12666 ft | 342 kts | 175° |
| 2026-04-18 04:10 | 39.57491 | 115.96051 | 13060 ft | 348 kts | 169° |
| 2026-04-18 04:10 | 39.55126 | 115.96455 | 13498 ft | 349 kts | 180° |
| 2026-04-18 04:10 | 39.52698 | 115.96703 | 13929 ft | 353 kts | 176° |
| 2026-04-18 04:10 | 39.50246 | 115.97117 | 14341 ft | 356 kts | 175° |
| 2026-04-18 04:11 | 39.47773 | 115.97538 | 14779 ft | 359 kts | 175° |
| 2026-04-18 04:11 | 39.45288 | 115.97941 | 15196 ft | 362 kts | 176° |
| 2026-04-18 04:11 | 39.42769 | 115.98333 | 15627 ft | 365 kts | 176° |
| 2026-04-18 04:11 | 39.40225 | 115.98721 | 16065 ft | 368 kts | 176° |
| 2026-04-18 04:12 | 39.37705 | 115.99100 | 16459 ft | 371 kts | 176° |
| 2026-04-18 04:12 | 39.35093 | 115.99490 | 16886 ft | 374 kts | 176° |
| 2026-04-18 04:12 | 39.32489 | 115.99878 | 17310 ft | 377 kts | 176° |
| 2026-04-18 04:12 | 39.29879 | 116.00265 | 17731 ft | 380 kts | 176° |
| 2026-04-18 04:13 | 39.27224 | 116.00658 | 18138 ft | 383 kts | 176° |
| 2026-04-18 04:13 | 39.24600 | 116.01046 | 18507 ft | 386 kts | 176° |
| 2026-04-18 04:13 | 39.21918 | 116.01343 | 18868 ft | 387 kts | 182° |
| 2026-04-18 04:13 | 39.19267 | 116.00915 | 19243 ft | 384 kts | 198° |
| 2026-04-18 04:14 | 39.16852 | 115.99493 | 19598 ft | 382 kts | 216° |
| 2026-04-18 04:14 | 39.14897 | 115.97205 | 19934 ft | 381 kts | 232° |
| 2026-04-18 04:14 | 39.13450 | 115.94336 | 20304 ft | 383 kts | 241° |
| 2026-04-18 04:14 | 39.12160 | 115.91327 | 20656 ft | 385 kts | 242° |
| 2026-04-18 04:15 | 39.10889 | 115.88328 | 21005 ft | 387 kts | 242° |
| 2026-04-18 04:15 | 39.09586 | 115.85279 | 21362 ft | 390 kts | 241° |
| 2026-04-18 04:15 | 39.08267 | 115.82213 | 21704 ft | 392 kts | 241° |
| 2026-04-18 04:15 | 39.06938 | 115.79136 | 22055 ft | 394 kts | 241° |
| 2026-04-18 04:16 | 39.05615 | 115.76083 | 22397 ft | 397 kts | 241° |
| 2026-04-18 04:16 | 39.04258 | 115.72958 | 22733 ft | 399 kts | 241° |
| 2026-04-18 04:16 | 39.02900 | 115.69835 | 23056 ft | 402 kts | 241° |
| 2026-04-18 04:16 | 39.01527 | 115.66683 | 23370 ft | 404 kts | 241° |
| 2026-04-18 04:17 | 39.00152 | 115.63529 | 23672 ft | 407 kts | 241° |
| 2026-04-18 04:17 | 38.98760 | 115.60340 | 23961 ft | 409 kts | 241° |
| 2026-04-18 04:17 | 38.97364 | 115.57144 | 24241 ft | 410 kts | 241° |
| 2026-04-18 04:17 | 38.95981 | 115.53983 | 24522 ft | 412 kts | 241° |
| 2026-04-18 04:18 | 38.94600 | 115.50751 | 24786 ft | 413 kts | 243° |
| 2026-04-18 04:18 | 38.93326 | 115.47422 | 25070 ft | 415 kts | 245° |
| 2026-04-18 04:18 | 38.92119 | 115.44048 | 25366 ft | 416 kts | 246° |
| 2026-04-18 04:18 | 38.90941 | 115.40644 | 25648 ft | 418 kts | 247° |
| 2026-04-18 04:19 | 38.89779 | 115.37257 | 25911 ft | 420 kts | 247° |
| 2026-04-18 04:19 | 38.88595 | 115.33819 | 26175 ft | 423 kts | 246° |
| 2026-04-18 04:19 | 38.87399 | 115.30368 | 26496 ft | 424 kts | 247° |
| 2026-04-18 04:19 | 38.86191 | 115.26908 | 26829 ft | 426 kts | 246° |
| 2026-04-18 04:20 | 38.84971 | 115.23432 | 27150 ft | 427 kts | 246° |
| 2026-04-18 04:20 | 38.83746 | 115.19955 | 27492 ft | 429 kts | 246° |